Terminal Aerodrome Forecast
Issued by NWS

Current Version | Previous Version | Text Only | Print | Product List | Glossary On
Versions: 1 2 3 4 5 6 7 8 9 10 11 12 13 14 15 16 17 18 19 20 21 22 23 24 25 26 27 28 29 30 31 32
000 FTUS41 KBOX 210538 TAFBAF TAF KBAF 210538Z 2106/2206 32003KT P6SM SCT120 FM211200 00000KT 5SM BR OVC070 FM212100 06004KT P6SM OVC025 FM220300 02005KT 5SM BR BKN020=

USA.gov is the U.S. government's official web portal to all federal, state and local government web resources and services.